Decoded Metar for KMWK (MOUNT AIRY/SURRY in NC, USA) (IATA:MWK) | Meteo·Mobile Aviation Weather
aviador You're here:

KMWK Decoded Metar

MOUNT AIRY/SURRY in NC, USA
Report Time2019-01-22 00:25:00
UTC Time2019-01-22 00:46:12
Flight Rules vfr VFR
WindCalm
Visibility9999 m
Phenomena:N/A
Clouds:N/A
Expected CloudBase > 7,600 ft AGL from Temp-Dew spread
CeilingNone
Temp-3°C (ISA -16)
Dew Point-22°C (22% RH)
AAT-6.6°C
QNH1032 hPa
Density Alt-1,283 ft
Elevation1,247 ft
Report Wrong Elevation
Raw Report
METAR KMWK 220025Z AUTO 00000KT 10SM CLR M03/M22 A3048 RMK AO2 T10321217=

Extra information for KMWK:More info

Metar Taf Metar & Taf Last 4 Metars F.Rules Stats Wind Profile Meteogram Temp Stats Airport Information Weather charts Add Link Nearby VenuesMetar ALERT Operation Metar Decoded Social comments

AIRNAV info for KMWK